METAR EVRA 262020Z 34006KT CAVOK M00/M06 Q1015 R36/190095 NOSIG =

[18 MAR 2012] Riga Spring Traffic

alt

 

In expecting of warmer weather, Riga ATCOs are getting together to celebrate it! Join us and celebrate together.

Expect Baltic Control to cover Baltic states around us for more enroute ATC!

Day: Sunday, March 18

Time: 17:00 - 21:00 UTC


Charts: http://lv-vacc.org/charts1.html

Free FS9/FSX Scenery: http://lv-vacc.org/downloads1.html


Follow us on twitter @EVRR_FIR and http://facebook.com/VatsimLatvia

Controllers Online

PositionControllerOnline
No controllers currently online

Booked ATC Today

* Times are UTC

The time is now

UTC: 

Local: 

Latvia vACC on twitter